createdAt,value
2022-08-12T00:00:27.768Z,102174.03
2022-08-12T00:03:20.843Z,102179.56
2022-08-12T00:06:11.621Z,102174.34
2022-08-12T00:09:02.577Z,102173.78
2022-08-12T00:11:54.206Z,102176.50
2022-08-12T00:14:45.177Z,102176.75
2022-08-12T00:17:39.185Z,102187.44
2022-08-12T00:20:30.316Z,102179.50
2022-08-12T00:23:21.377Z,102177.84
2022-08-12T00:26:22.607Z,102177.03
2022-08-12T00:29:15.231Z,102177.84
2022-08-12T00:32:05.587Z,102171.88
2022-08-12T00:34:56.005Z,102171.19
2022-08-12T00:37:46.501Z,102175.16
2022-08-12T00:40:36.677Z,102176.25
2022-08-12T00:43:15.272Z,102178.03
2022-08-12T00:46:07.531Z,102183.31
2022-08-12T00:48:41.225Z,102178.91
2022-08-12T00:51:14.552Z,102175.44
2022-08-12T00:53:48.352Z,102176.25
2022-08-12T00:56:22.977Z,102186.78
2022-08-12T00:58:57.125Z,102186.00
2022-08-12T01:01:30.499Z,102187.84
2022-08-12T01:04:43.883Z,102187.84
2022-08-12T01:07:37.418Z,102191.81
2022-08-12T01:10:32.651Z,102188.50
2022-08-12T01:13:07.435Z,102189.66
2022-08-12T01:15:57.840Z,102187.19
2022-08-12T01:18:33.777Z,102179.34
2022-08-12T01:21:27.039Z,102181.28
2022-08-12T01:24:31.190Z,102186.81
2022-08-12T01:27:07.649Z,102186.16
2022-08-12T01:29:48.774Z,102188.94
2022-08-12T01:32:23.770Z,102188.97
2022-08-12T01:35:07.931Z,102179.38
2022-08-12T01:38:19.597Z,102180.47
2022-08-12T01:41:04.596Z,102177.69
2022-08-12T01:43:38.165Z,102177.69
2022-08-12T01:46:29.711Z,102178.56
2022-08-12T01:49:34.102Z,102172.50
2022-08-12T01:52:20.664Z,102170.88
2022-08-12T01:54:54.843Z,102169.97
2022-08-12T01:58:53.001Z,102165.66
2022-08-12T02:01:34.981Z,102159.69
2022-08-12T02:04:37.889Z,102161.66
2022-08-12T02:08:14.590Z,102165.53
2022-08-12T02:11:23.254Z,102172.78
2022-08-12T02:14:49.677Z,102172.97
2022-08-12T02:17:57.817Z,102169.56
2022-08-12T02:20:52.442Z,102162.50
2022-08-12T02:23:28.116Z,102172.38
2022-08-12T02:26:09.017Z,102153.81
2022-08-12T02:28:41.887Z,102166.31
2022-08-12T02:31:15.089Z,102169.00
2022-08-12T02:33:47.759Z,102165.50
2022-08-12T02:36:19.745Z,102165.56
2022-08-12T02:38:55.382Z,102167.44
2022-08-12T02:41:32.704Z,102168.34
2022-08-12T02:44:09.901Z,102162.09
2022-08-12T02:46:50.396Z,102164.63
2022-08-12T02:49:36.316Z,102173.50
2022-08-12T02:52:09.094Z,102163.78
2022-08-12T02:54:44.659Z,102175.34
2022-08-12T02:57:18.160Z,102167.47
2022-08-12T02:59:50.922Z,102167.47
2022-08-12T03:02:28.188Z,102174.53
2022-08-12T03:05:04.500Z,102175.44
2022-08-12T03:07:56.455Z,102168.41
2022-08-12T03:10:39.676Z,102166.75
2022-08-12T03:13:17.782Z,102160.56
2022-08-12T03:15:50.304Z,102158.81
2022-08-12T03:18:33.300Z,102156.16
2022-08-12T03:21:05.531Z,102160.75
2022-08-12T03:23:41.969Z,102148.47
2022-08-12T03:26:15.047Z,102151.03
2022-08-12T03:28:50.655Z,102153.78
2022-08-12T03:31:32.461Z,102151.25
2022-08-12T03:34:08.974Z,102145.94
2022-08-12T03:36:42.864Z,102142.50
2022-08-12T03:39:18.415Z,102143.50
2022-08-12T03:42:28.561Z,102143.66
2022-08-12T03:45:52.213Z,102146.50
2022-08-12T03:48:44.472Z,102148.41
2022-08-12T03:51:34.839Z,102149.22
2022-08-12T03:54:25.201Z,102144.84
2022-08-12T03:57:15.504Z,102156.34
2022-08-12T04:00:05.813Z,102158.19
2022-08-12T04:02:41.321Z,102162.75
2022-08-12T04:05:13.970Z,102160.13
2022-08-12T04:07:58.111Z,102151.22
2022-08-12T04:10:49.391Z,102161.84
2022-08-12T04:13:24.073Z,102152.06
2022-08-12T04:15:56.716Z,102153.91
2022-08-12T04:18:29.652Z,102146.06
2022-08-12T04:21:02.963Z,102149.66
2022-08-12T04:23:35.725Z,102150.56
2022-08-12T04:26:08.051Z,102154.03
2022-08-12T04:28:40.016Z,102154.06
2022-08-12T04:31:14.312Z,102148.06
2022-08-12T04:33:47.217Z,102151.59
2022-08-12T04:36:19.489Z,102152.50
2022-08-12T04:38:59.554Z,102153.38
2022-08-12T04:41:32.464Z,102147.19
2022-08-12T04:44:05.997Z,102150.78
2022-08-12T04:46:38.452Z,102141.09
2022-08-12T04:49:10.872Z,102149.03
2022-08-12T04:51:43.363Z,102158.72
2022-08-12T04:54:28.932Z,102159.56
2022-08-12T04:57:03.100Z,102158.63
2022-08-12T04:59:47.218Z,102162.16
2022-08-12T05:02:22.948Z,102155.13
2022-08-12T05:04:56.371Z,102153.25
2022-08-12T05:07:34.180Z,102159.38
2022-08-12T05:10:21.265Z,102155.06
2022-08-12T05:13:11.500Z,102150.66
2022-08-12T05:16:02.613Z,102147.88
2022-08-12T05:18:39.767Z,102153.09
2022-08-12T05:21:11.938Z,102146.78
2022-08-12T05:23:43.944Z,102146.72
2022-08-12T05:26:15.985Z,102151.94
2022-08-12T05:28:47.947Z,102153.59
2022-08-12T05:31:42.563Z,102154.41
2022-08-12T05:34:14.751Z,102148.97
2022-08-12T05:36:46.782Z,102143.41
2022-08-12T05:39:18.856Z,102149.44
2022-08-12T05:41:50.813Z,102144.03
2022-08-12T05:44:22.834Z,102152.72
2022-08-12T05:46:54.792Z,102156.94
2022-08-12T05:49:27.238Z,102142.59
2022-08-12T05:51:59.314Z,102143.31
2022-08-12T05:54:54.628Z,102148.50
2022-08-12T05:57:23.309Z,102145.63
2022-08-12T05:59:55.380Z,102149.91
2022-08-12T06:02:27.885Z,102150.66
2022-08-12T06:05:00.422Z,102148.66
2022-08-12T06:08:00.311Z,102151.19
2022-08-12T06:10:32.187Z,102156.28
2022-08-12T06:13:06.956Z,102155.09
2022-08-12T06:15:41.205Z,102152.31
2022-08-12T06:18:16.306Z,102150.38
2022-08-12T06:20:49.688Z,102154.69
2022-08-12T06:23:28.746Z,102151.97
2022-08-12T06:26:01.409Z,102157.00
2022-08-12T06:28:33.711Z,102165.56
2022-08-12T06:35:22.716Z,102162.91
2022-08-12T06:36:51.060Z,102162.69
2022-08-12T06:39:24.296Z,102161.53
2022-08-12T06:42:32.865Z,102168.41
2022-08-12T06:45:07.352Z,102168.19
2022-08-12T06:47:40.523Z,102161.84
2022-08-12T06:50:15.886Z,102169.78
2022-08-12T06:52:48.185Z,102163.47
2022-08-12T06:55:20.905Z,102161.44
2022-08-12T06:58:08.000Z,102168.38
2022-08-12T07:00:46.827Z,102157.56
2022-08-12T07:03:27.731Z,102153.72
2022-08-12T07:06:03.615Z,102156.97
2022-08-12T07:08:35.869Z,102160.25
2022-08-12T07:11:12.107Z,102160.97
2022-08-12T07:14:02.424Z,102160.66
2022-08-12T07:16:57.606Z,102163.13
2022-08-12T07:19:45.082Z,102166.41
2022-08-12T07:22:17.909Z,102168.69
2022-08-12T07:25:10.006Z,102172.84
2022-08-12T07:27:43.465Z,102170.47
2022-08-12T07:30:15.513Z,102179.72
2022-08-12T07:32:49.826Z,102186.25
2022-08-12T07:35:21.973Z,102175.84
2022-08-12T07:37:54.255Z,102174.25
2022-08-12T07:40:29.759Z,102172.75
2022-08-12T07:43:01.723Z,102174.69
2022-08-12T07:45:33.716Z,102171.38
2022-08-12T07:48:06.313Z,102163.97
2022-08-12T07:50:38.879Z,102169.41
2022-08-12T07:53:11.325Z,102164.91
2022-08-12T07:55:43.870Z,102167.31
2022-08-12T07:58:16.070Z,102169.72
2022-08-12T08:00:49.915Z,102160.88
2022-08-12T08:03:22.978Z,102164.63
2022-08-12T08:05:55.049Z,102162.53
2022-08-12T08:08:28.987Z,102161.25
2022-08-12T08:11:19.335Z,102166.63
2022-08-12T08:13:51.304Z,102172.97
2022-08-12T08:16:24.572Z,102164.25
2022-08-12T08:18:59.594Z,102161.97
2022-08-12T08:21:35.436Z,102169.78
2022-08-12T08:24:16.565Z,102167.00
2022-08-12T08:26:55.021Z,102159.44
2022-08-12T08:29:27.407Z,102167.69
2022-08-12T08:32:01.487Z,102169.91
2022-08-12T08:34:53.895Z,102168.00
2022-08-12T08:37:29.856Z,102168.41
2022-08-12T08:40:26.723Z,102166.78
2022-08-12T08:42:58.776Z,102159.41
2022-08-12T08:45:31.381Z,102164.28
2022-08-12T08:48:04.488Z,102167.94
2022-08-12T08:50:36.441Z,102163.50
2022-08-12T08:53:08.888Z,102157.53
2022-08-12T08:56:03.710Z,102159.56
2022-08-12T08:58:34.648Z,102162.13
2022-08-12T09:01:07.021Z,102152.94
2022-08-12T09:05:11.867Z,102156.22
2022-08-12T09:06:37.364Z,102155.97
2022-08-12T09:12:51.529Z,102159.66
2022-08-12T09:15:34.911Z,102159.53
2022-08-12T09:18:11.095Z,102160.91
2022-08-12T09:20:43.843Z,102159.91
2022-08-12T09:24:00.124Z,102164.66
2022-08-12T09:26:09.829Z,102160.22
2022-08-12T09:32:04.292Z,102159.16
2022-08-12T09:34:34.113Z,102156.66
2022-08-12T09:37:20.077Z,102146.84
2022-08-12T09:40:05.245Z,102141.44
2022-08-12T09:43:17.146Z,102142.44
2022-08-12T09:46:19.707Z,102141.19
2022-08-12T09:48:44.826Z,102141.19
2022-08-12T09:51:37.293Z,102135.41
2022-08-12T09:54:34.137Z,102130.84
2022-08-12T09:58:08.125Z,102132.97
2022-08-12T10:00:19.722Z,102126.88
2022-08-12T10:03:05.593Z,102124.97
2022-08-12T10:06:26.175Z,102133.75
2022-08-12T10:08:40.029Z,102120.66
2022-08-12T10:11:41.365Z,102115.69
2022-08-12T10:14:35.315Z,102107.22
2022-08-12T10:17:09.361Z,102101.13
2022-08-12T10:19:51.519Z,102096.09
2022-08-12T10:22:36.795Z,102100.53
2022-08-12T10:26:18.415Z,102101.53
2022-08-12T10:28:56.259Z,102100.72
2022-08-12T10:31:46.928Z,102091.75
2022-08-12T10:34:26.069Z,102102.00
2022-08-12T10:37:22.520Z,102083.66
2022-08-12T10:40:06.242Z,102086.50
2022-08-12T10:43:01.641Z,102085.03
2022-08-12T10:45:35.736Z,102080.06
2022-08-12T10:48:21.693Z,102079.97
2022-08-12T10:51:03.411Z,102074.91
2022-08-12T10:53:44.510Z,102071.91
2022-08-12T10:56:18.705Z,102065.75
2022-08-12T10:58:52.176Z,102069.47
2022-08-12T11:03:01.596Z,102054.88
2022-08-12T11:04:29.683Z,102055.97
2022-08-12T11:08:39.013Z,102052.31
2022-08-12T11:10:01.825Z,102051.75
2022-08-12T11:12:58.473Z,102042.44
2022-08-12T11:16:04.346Z,102040.63
2022-08-12T11:18:24.636Z,102045.63
2022-08-12T11:20:57.831Z,102036.84
2022-08-12T11:23:36.917Z,102037.06
2022-08-12T11:26:09.603Z,102030.66
2022-08-12T11:28:41.680Z,102029.97
2022-08-12T11:31:14.456Z,102018.13
2022-08-12T11:34:06.569Z,102026.94
2022-08-12T11:36:56.970Z,102028.22
2022-08-12T11:40:03.405Z,102027.22
2022-08-12T11:42:32.183Z,102012.22
2022-08-12T11:45:05.721Z,102022.00
2022-08-12T11:47:42.415Z,102015.00
2022-08-12T11:50:19.432Z,102009.69
2022-08-12T11:52:56.645Z,102001.28
2022-08-12T11:55:29.811Z,102002.47
2022-08-12T11:58:34.031Z,102003.81
2022-08-12T12:03:46.577Z,101996.03
2022-08-12T12:06:21.022Z,101994.72
2022-08-12T12:08:54.998Z,101991.28
2022-08-12T12:11:27.119Z,101991.16
2022-08-12T12:14:19.064Z,101996.19
2022-08-12T12:17:10.284Z,101986.84
2022-08-12T12:19:46.364Z,101974.00
2022-08-12T12:22:23.359Z,101980.91
2022-08-12T12:25:13.165Z,101983.03
2022-08-12T12:28:04.669Z,101980.41
2022-08-12T12:30:38.298Z,101972.16
2022-08-12T12:33:17.680Z,101956.88
2022-08-12T12:36:16.557Z,101966.84
2022-08-12T12:38:42.710Z,101961.50
2022-08-12T12:41:16.779Z,101966.84
2022-08-12T12:43:56.448Z,101958.38
2022-08-12T12:46:36.405Z,101950.03
2022-08-12T12:49:11.115Z,101951.56
2022-08-12T12:52:13.307Z,101951.56
2022-08-12T12:54:52.671Z,101943.69
2022-08-12T12:57:59.486Z,101935.13
2022-08-12T13:00:19.756Z,101941.06
2022-08-12T13:02:58.423Z,101936.41
2022-08-12T13:05:42.041Z,101950.44
2022-08-12T13:08:28.241Z,101938.97
2022-08-12T13:11:08.165Z,101932.41
2022-08-12T13:14:10.174Z,101939.34
2022-08-12T13:16:36.712Z,101933.69
2022-08-12T13:19:16.273Z,101936.81
2022-08-12T13:22:15.830Z,101943.88
2022-08-12T13:24:56.472Z,101944.88
2022-08-12T13:27:34.966Z,101938.22
2022-08-12T13:30:13.944Z,101939.41
2022-08-12T13:32:56.752Z,101931.31
2022-08-12T13:36:05.092Z,101936.06
2022-08-12T13:38:45.235Z,101933.16
2022-08-12T13:41:36.484Z,101936.47
2022-08-12T13:44:10.639Z,101927.00
2022-08-12T13:46:42.949Z,101929.53
2022-08-12T13:49:17.686Z,101933.31
2022-08-12T13:52:08.617Z,101922.03
2022-08-12T13:54:40.649Z,101920.66
2022-08-12T13:57:17.209Z,101920.47
2022-08-12T13:59:55.020Z,101916.97
2022-08-12T14:02:27.876Z,101914.13
2022-08-12T14:04:59.903Z,101914.56
2022-08-12T14:07:48.709Z,101910.22
2022-08-12T14:10:50.408Z,101905.41
2022-08-12T14:14:05.504Z,101905.78
2022-08-12T14:16:37.718Z,101899.84
2022-08-12T14:19:22.525Z,101901.75
2022-08-12T14:21:59.456Z,101896.09
2022-08-12T14:24:40.381Z,101898.44
2022-08-12T14:27:13.309Z,101896.22
2022-08-12T14:30:04.412Z,101887.59
2022-08-12T14:32:39.025Z,101879.00
2022-08-12T14:35:11.244Z,101889.69
2022-08-12T14:37:57.784Z,101889.84
2022-08-12T14:40:31.203Z,101888.22
2022-08-12T14:43:06.297Z,101884.06
2022-08-12T14:45:46.937Z,101883.63
2022-08-12T14:48:24.198Z,101883.03
2022-08-12T14:52:16.190Z,101883.03
2022-08-12T14:55:38.528Z,101882.13
2022-08-12T14:59:57.638Z,101873.44
2022-08-12T15:02:30.469Z,101881.19
2022-08-12T15:05:08.204Z,101867.69
2022-08-12T15:07:49.536Z,101880.72
2022-08-12T15:10:30.096Z,101870.06
2022-08-12T15:13:07.664Z,101872.59
2022-08-12T15:15:45.730Z,101860.09
2022-08-12T15:18:22.865Z,101857.47
2022-08-12T15:21:03.579Z,101861.03
2022-08-12T15:23:55.062Z,101854.88
2022-08-12T15:26:35.710Z,101856.00
2022-08-12T15:29:10.549Z,101859.38
2022-08-12T15:32:00.499Z,101855.91
2022-08-12T15:34:38.881Z,101853.47
2022-08-12T15:37:10.873Z,101854.28
2022-08-12T15:39:55.289Z,101850.03
2022-08-12T15:42:34.299Z,101842.13
2022-08-12T15:45:08.757Z,101848.66
2022-08-12T15:47:49.549Z,101843.50
2022-08-12T15:50:27.442Z,101847.69
2022-08-12T15:53:14.289Z,101845.56
2022-08-12T15:55:49.406Z,101839.28
2022-08-12T15:58:24.778Z,101832.53
2022-08-12T16:00:59.101Z,101831.44
2022-08-12T16:03:46.503Z,101838.97
2022-08-12T16:06:35.597Z,101832.84
2022-08-12T16:10:04.802Z,101833.16
2022-08-12T16:12:15.014Z,101825.88
2022-08-12T16:14:47.455Z,101829.81
2022-08-12T16:18:08.870Z,101824.56
2022-08-12T16:20:22.735Z,101827.59
2022-08-12T16:23:36.217Z,101820.00
2022-08-12T16:26:14.534Z,101813.38
2022-08-12T16:28:47.824Z,101817.78
2022-08-12T16:31:23.041Z,101810.16
2022-08-12T16:33:59.728Z,101810.41
2022-08-12T16:36:33.020Z,101814.44
2022-08-12T16:39:05.566Z,101816.03
2022-08-12T16:41:39.817Z,101806.47
2022-08-12T16:44:13.395Z,101816.53
2022-08-12T16:46:57.948Z,101802.66
2022-08-12T16:49:41.694Z,101810.63
2022-08-12T16:52:16.418Z,101802.75
2022-08-12T16:54:48.676Z,101801.03
2022-08-12T16:57:34.551Z,101808.16
2022-08-12T17:00:14.494Z,101809.47
2022-08-12T17:02:54.817Z,101802.59
2022-08-12T17:05:31.338Z,101809.34
2022-08-12T17:08:10.777Z,101805.50
2022-08-12T17:10:52.726Z,101801.53
2022-08-12T17:13:28.435Z,101802.53
2022-08-12T17:16:05.834Z,101801.53
2022-08-12T17:18:57.744Z,101798.00
2022-08-12T17:21:41.260Z,101800.94
2022-08-12T17:24:30.324Z,101799.91
2022-08-12T17:27:09.698Z,101807.63
2022-08-12T17:30:02.034Z,101799.13
2022-08-12T17:32:37.700Z,101803.50
2022-08-12T17:35:29.859Z,101798.09
2022-08-12T17:38:13.767Z,101793.13
2022-08-12T17:40:47.664Z,101792.63
2022-08-12T17:43:54.659Z,101797.72
2022-08-12T17:46:23.621Z,101800.78
2022-08-12T17:48:57.832Z,101795.97
2022-08-12T17:51:32.952Z,101809.91
2022-08-12T17:54:25.308Z,101803.25
2022-08-12T17:56:57.952Z,101809.09
2022-08-12T17:59:47.637Z,101814.19
2022-08-12T18:02:30.065Z,101812.84
2022-08-12T18:05:05.715Z,101817.31
2022-08-12T18:07:46.278Z,101824.22
2022-08-12T18:10:42.946Z,101828.22
2022-08-12T18:13:37.743Z,101825.00
2022-08-12T18:16:12.637Z,101819.19
2022-08-12T18:18:45.889Z,101824.03
2022-08-12T18:21:21.358Z,101829.22
2022-08-12T18:23:56.578Z,101834.03
2022-08-12T18:26:32.178Z,101828.19
2022-08-12T18:29:06.137Z,101833.16
2022-08-12T18:31:44.731Z,101836.16
2022-08-12T18:34:32.776Z,101837.56
2022-08-12T18:37:26.637Z,101840.56
2022-08-12T18:40:17.791Z,101843.25
2022-08-12T18:42:54.241Z,101844.53
2022-08-12T18:45:31.603Z,101836.94
2022-08-12T18:48:21.237Z,101844.66
2022-08-12T18:51:09.653Z,101841.59
2022-08-12T18:54:07.625Z,101843.47
2022-08-12T18:56:40.876Z,101849.16
2022-08-12T19:00:02.301Z,101846.88
2022-08-12T19:02:21.305Z,101844.81
2022-08-12T19:04:57.493Z,101847.97
2022-08-12T19:07:49.404Z,101850.09
2022-08-12T19:10:23.390Z,101848.84
2022-08-12T19:13:23.094Z,101857.22
2022-08-12T19:15:57.896Z,101852.50
2022-08-12T19:18:36.825Z,101860.84
2022-08-12T19:21:17.039Z,101863.06
2022-08-12T19:24:12.180Z,101860.00
2022-08-12T19:26:45.982Z,101854.91
2022-08-12T19:29:29.396Z,101866.13
2022-08-12T19:32:28.367Z,101867.25
2022-08-12T19:38:06.530Z,101866.19
2022-08-12T19:40:43.008Z,101869.25
2022-08-12T19:43:21.829Z,101869.69
2022-08-12T19:45:56.625Z,101873.63
2022-08-12T19:48:30.790Z,101869.41
2022-08-12T19:51:08.806Z,101867.94
2022-08-12T19:53:58.206Z,101873.50
2022-08-12T19:56:32.385Z,101873.09
2022-08-12T19:59:23.221Z,101874.34
2022-08-12T20:02:03.408Z,101878.22
2022-08-12T20:04:43.829Z,101880.31
2022-08-12T20:07:23.449Z,101881.44
2022-08-12T20:09:56.825Z,101881.78
2022-08-12T20:12:32.961Z,101886.66
2022-08-12T20:15:09.273Z,101886.91
2022-08-12T20:17:51.294Z,101889.75
2022-08-12T20:20:27.659Z,101888.97
2022-08-12T20:23:00.702Z,101896.25
2022-08-12T20:25:52.168Z,101891.94
2022-08-12T20:28:29.229Z,101894.88
2022-08-12T20:31:01.696Z,101898.41
2022-08-12T20:33:56.089Z,101894.28
2022-08-12T20:36:42.946Z,101892.03
2022-08-12T20:39:51.930Z,101885.03
2022-08-12T20:42:10.756Z,101888.00
2022-08-12T20:44:43.278Z,101888.28
2022-08-12T20:47:18.776Z,101893.03
2022-08-12T20:49:55.443Z,101889.81
2022-08-12T20:52:34.126Z,101896.47
2022-08-12T20:55:15.566Z,101896.69
2022-08-12T20:58:02.681Z,101898.94
2022-08-12T21:00:37.058Z,101897.47
2022-08-12T21:03:29.312Z,101891.47
2022-08-12T21:06:22.339Z,101891.81
2022-08-12T21:09:01.556Z,101900.25
2022-08-12T21:11:36.583Z,101892.22
2022-08-12T21:14:11.110Z,101901.34
2022-08-12T21:16:52.547Z,101905.13
2022-08-12T21:19:24.903Z,101897.34
2022-08-12T21:22:24.857Z,101901.28
2022-08-12T21:24:57.130Z,101901.63
2022-08-12T21:27:57.815Z,101907.13
2022-08-12T21:30:27.321Z,101901.13
2022-08-12T21:33:10.603Z,101909.31
2022-08-12T21:35:48.255Z,101911.19
2022-08-12T21:38:22.163Z,101907.75
2022-08-12T21:41:15.649Z,101903.56
2022-08-12T21:43:50.423Z,101905.53
2022-08-12T21:46:34.938Z,101906.72
2022-08-12T21:49:09.656Z,101916.72
2022-08-12T21:51:50.269Z,101910.66
2022-08-12T21:54:24.329Z,101910.94
2022-08-12T21:56:59.629Z,101912.81
2022-08-12T21:59:31.601Z,101916.66
2022-08-12T22:02:23.687Z,101910.59
2022-08-12T22:05:23.925Z,101908.38
2022-08-12T22:07:58.508Z,101907.69
2022-08-12T22:10:30.495Z,101908.81
2022-08-12T22:13:02.473Z,101911.47
2022-08-12T22:15:34.484Z,101908.16
2022-08-12T22:18:07.565Z,101916.41
2022-08-12T22:20:42.203Z,101916.88
2022-08-12T22:23:21.635Z,101919.75
2022-08-12T22:26:11.865Z,101924.47
2022-08-12T22:29:19.494Z,101926.41
2022-08-12T22:31:54.638Z,101934.59
2022-08-12T22:34:33.204Z,101926.69
2022-08-12T22:37:05.864Z,101921.34
2022-08-12T22:39:44.776Z,101921.34
2022-08-12T22:42:35.893Z,101928.69
2022-08-12T22:45:26.851Z,101928.13
2022-08-12T22:47:59.308Z,101925.94
2022-08-12T22:50:31.800Z,101922.81
2022-08-12T22:53:17.114Z,101929.28
2022-08-12T22:56:00.650Z,101930.66
2022-08-12T22:58:41.527Z,101925.72
2022-08-12T23:01:21.558Z,101926.88
2022-08-12T23:04:15.635Z,101924.66
2022-08-12T23:07:05.444Z,101924.25
2022-08-12T23:09:47.912Z,101929.78
2022-08-12T23:12:40.978Z,101937.09
2022-08-12T23:15:19.341Z,101935.56
2022-08-12T23:17:51.438Z,101939.28
2022-08-12T23:20:26.886Z,101936.75
2022-08-12T23:23:08.834Z,101937.81
2022-08-12T23:25:55.148Z,101935.34
2022-08-12T23:28:46.626Z,101938.41
2022-08-12T23:31:27.064Z,101934.19
2022-08-12T23:34:18.048Z,101935.38
2022-08-12T23:36:51.603Z,101933.88
2022-08-12T23:40:13.865Z,101944.66
2022-08-12T23:42:16.425Z,101938.63
2022-08-12T23:44:53.447Z,101940.50
2022-08-12T23:47:27.675Z,101937.06
2022-08-12T23:50:04.264Z,101933.66
2022-08-12T23:52:48.889Z,101929.25
2022-08-12T23:55:24.633Z,101935.50
2022-08-12T23:58:21.726Z,101932.97
